createdAt,value
2023-05-18T00:01:56.221Z,99.90
2023-05-18T00:04:24.554Z,99.90
2023-05-18T00:06:48.204Z,99.90
2023-05-18T00:09:11.736Z,99.90
2023-05-18T00:11:39.675Z,99.90
2023-05-18T00:14:03.406Z,99.90
2023-05-18T00:16:27.062Z,99.90
2023-05-18T00:18:54.678Z,99.90
2023-05-18T00:21:18.485Z,99.90
2023-05-18T00:23:42.957Z,99.90
2023-05-18T00:26:06.754Z,99.90
2023-05-18T00:28:31.828Z,99.90
2023-05-18T00:30:56.210Z,99.90
2023-05-18T00:33:19.834Z,99.90
2023-05-18T00:35:43.496Z,99.90
2023-05-18T00:38:07.065Z,99.90
2023-05-18T00:40:30.975Z,99.90
2023-05-18T00:42:54.515Z,99.90
2023-05-18T00:45:20.486Z,99.90
2023-05-18T00:47:44.072Z,99.90
2023-05-18T00:50:09.135Z,99.90
2023-05-18T00:52:33.095Z,99.90
2023-05-18T00:54:58.416Z,99.90
2023-05-18T00:57:22.319Z,99.90
2023-05-18T00:59:46.774Z,99.90
2023-05-18T01:02:12.175Z,99.90
2023-05-18T01:04:38.106Z,99.90
2023-05-18T01:07:06.660Z,99.90
2023-05-18T01:09:30.735Z,99.90
2023-05-18T01:12:02.918Z,99.90
2023-05-18T01:14:32.809Z,99.90
2023-05-18T01:17:10.443Z,99.90
2023-05-18T01:20:14.725Z,99.90
2023-05-18T01:22:58.763Z,99.90
2023-05-18T01:25:36.711Z,99.90
2023-05-18T01:28:07.212Z,99.90
2023-05-18T01:30:30.899Z,99.90
2023-05-18T01:32:54.530Z,99.90
2023-05-18T01:35:18.238Z,99.90
2023-05-18T01:37:41.936Z,99.90
2023-05-18T01:40:07.645Z,99.90
2023-05-18T01:42:34.957Z,99.90
2023-05-18T01:45:05.199Z,99.90
2023-05-18T01:47:32.141Z,99.90
2023-05-18T01:50:02.878Z,99.90
2023-05-18T01:52:34.530Z,99.90
2023-05-18T01:55:03.366Z,99.90
2023-05-18T01:57:31.282Z,99.90
2023-05-18T01:59:56.026Z,99.90
2023-05-18T02:02:21.632Z,99.90
2023-05-18T02:04:45.428Z,99.90
2023-05-18T02:07:09.462Z,99.90
2023-05-18T02:09:33.201Z,99.90
2023-05-18T02:11:57.229Z,99.90
2023-05-18T02:14:22.314Z,99.90
2023-05-18T02:16:47.338Z,99.90
2023-05-18T02:19:12.732Z,99.90
2023-05-18T02:21:36.299Z,99.90
2023-05-18T02:24:00.179Z,99.90
2023-05-18T02:26:24.018Z,99.90
2023-05-18T02:28:49.313Z,99.90
2023-05-18T02:31:13.704Z,99.90
2023-05-18T02:33:40.040Z,99.90
2023-05-18T02:36:05.734Z,99.90
2023-05-18T02:38:29.450Z,99.90
2023-05-18T02:40:53.093Z,99.90
2023-05-18T02:43:16.893Z,99.90
2023-05-18T02:45:40.591Z,99.90
2023-05-18T02:48:04.476Z,99.90
2023-05-18T02:50:28.212Z,99.90
2023-05-18T02:52:53.497Z,99.90
2023-05-18T02:55:19.026Z,99.90
2023-05-18T02:58:00.577Z,99.90
2023-05-18T03:00:43.960Z,99.90
2023-05-18T03:03:10.943Z,99.90
2023-05-18T03:05:34.958Z,99.90
2023-05-18T03:08:02.525Z,99.90
2023-05-18T03:10:27.388Z,99.90
2023-05-18T03:12:51.452Z,99.90
2023-05-18T03:15:16.190Z,99.90
2023-05-18T03:17:39.964Z,99.90
2023-05-18T03:20:04.678Z,99.90
2023-05-18T03:22:28.828Z,99.90
2023-05-18T03:24:55.540Z,99.90
2023-05-18T03:27:23.146Z,99.90
2023-05-18T03:29:46.753Z,99.90
2023-05-18T03:32:10.996Z,99.90
2023-05-18T03:34:35.140Z,99.90
2023-05-18T03:36:58.746Z,99.90
2023-05-18T03:39:22.482Z,99.90
2023-05-18T03:41:47.512Z,99.90
2023-05-18T03:44:11.622Z,99.90
2023-05-18T03:46:35.384Z,99.90
2023-05-18T03:48:59.227Z,99.90
2023-05-18T03:51:30.217Z,99.90
2023-05-18T03:53:53.927Z,99.90
2023-05-18T03:56:17.740Z,99.90
2023-05-18T03:58:44.493Z,99.90
2023-05-18T04:01:08.240Z,99.90
2023-05-18T04:03:34.782Z,99.90
2023-05-18T04:05:58.669Z,99.90
2023-05-18T04:08:25.458Z,99.90
2023-05-18T04:10:49.347Z,99.90
2023-05-18T04:13:13.564Z,99.90
2023-05-18T04:15:38.621Z,99.90
2023-05-18T04:18:02.361Z,99.90
2023-05-18T04:20:28.472Z,99.90
2023-05-18T04:22:52.471Z,99.90
2023-05-18T04:25:17.669Z,99.90
2023-05-18T04:27:41.841Z,99.90
2023-05-18T04:30:08.575Z,99.90
2023-05-18T04:32:36.646Z,99.90
2023-05-18T04:35:01.825Z,99.90
2023-05-18T04:37:25.478Z,99.90
2023-05-18T04:39:49.216Z,99.90
2023-05-18T04:42:14.642Z,99.90
2023-05-18T04:44:40.196Z,99.90
2023-05-18T04:47:04.325Z,99.90
2023-05-18T04:49:32.097Z,99.90
2023-05-18T04:51:58.113Z,99.90
2023-05-18T04:54:24.099Z,99.90
2023-05-18T04:56:48.014Z,99.90
2023-05-18T04:59:11.621Z,99.90
2023-05-18T05:01:35.346Z,99.90
2023-05-18T05:03:59.895Z,99.90
2023-05-18T05:06:25.087Z,99.90
2023-05-18T05:08:48.796Z,99.90
2023-05-18T05:11:12.420Z,99.90
2023-05-18T05:13:36.561Z,99.90
2023-05-18T05:16:00.318Z,99.90
2023-05-18T05:18:24.052Z,99.90
2023-05-18T05:20:47.691Z,99.90
2023-05-18T05:23:14.288Z,99.90
2023-05-18T05:25:39.700Z,99.90
2023-05-18T05:28:03.272Z,99.90
2023-05-18T05:30:27.038Z,99.90
2023-05-18T05:32:50.677Z,99.90
2023-05-18T05:35:14.336Z,99.90
2023-05-18T05:37:38.763Z,99.90
2023-05-18T05:40:06.324Z,99.90
2023-05-18T05:42:34.118Z,99.90
2023-05-18T05:44:59.174Z,99.90
2023-05-18T05:47:24.159Z,99.90
2023-05-18T05:49:48.226Z,99.90
2023-05-18T05:52:11.906Z,99.90
2023-05-18T05:54:35.624Z,99.90
2023-05-18T05:57:00.811Z,99.90
2023-05-18T05:59:24.511Z,99.90
2023-05-18T06:01:48.144Z,99.90
2023-05-18T06:04:12.689Z,99.90
2023-05-18T06:06:36.401Z,99.90
2023-05-18T06:09:00.255Z,99.90
2023-05-18T06:11:23.862Z,99.90
2023-05-18T06:13:49.335Z,99.90
2023-05-18T06:16:13.004Z,99.90
2023-05-18T06:18:37.020Z,99.90
2023-05-18T06:21:02.374Z,99.90
2023-05-18T06:23:26.185Z,99.90
2023-05-18T06:26:05.559Z,99.90
2023-05-18T06:28:52.747Z,99.90
2023-05-18T06:31:30.378Z,99.90
2023-05-18T06:34:17.292Z,99.90
2023-05-18T06:36:40.997Z,99.90
2023-05-18T06:39:04.956Z,99.90
2023-05-18T06:41:28.694Z,99.90
2023-05-18T06:43:53.726Z,99.90
2023-05-18T06:46:23.049Z,99.90
2023-05-18T06:48:50.032Z,98.30
2023-05-18T06:51:13.646Z,97.80
2023-05-18T06:53:37.339Z,98.00
2023-05-18T06:56:01.236Z,96.30
2023-05-18T06:58:24.990Z,98.50
2023-05-18T07:00:50.715Z,96.90
2023-05-18T07:03:14.357Z,97.60
2023-05-18T07:05:39.518Z,97.10
2023-05-18T07:08:04.987Z,96.30
2023-05-18T07:10:28.986Z,96.00
2023-05-18T07:12:52.702Z,95.70
2023-05-18T07:15:16.572Z,96.90
2023-05-18T07:17:41.735Z,96.00
2023-05-18T07:20:07.126Z,95.40
2023-05-18T07:22:30.702Z,96.70
2023-05-18T07:24:54.233Z,96.90
2023-05-18T07:27:17.950Z,97.20
2023-05-18T07:29:42.187Z,96.20
2023-05-18T07:32:06.484Z,97.10
2023-05-18T07:34:32.342Z,96.30
2023-05-18T07:36:56.123Z,96.40
2023-05-18T07:39:19.896Z,96.70
2023-05-18T07:41:43.578Z,96.90
2023-05-18T07:44:07.352Z,96.60
2023-05-18T07:46:31.578Z,98.80
2023-05-18T07:48:55.225Z,96.90
2023-05-18T07:51:20.223Z,98.00
2023-05-18T07:53:45.958Z,97.40
2023-05-18T07:56:09.984Z,96.90
2023-05-18T07:58:33.591Z,98.00
2023-05-18T08:00:57.262Z,96.70
2023-05-18T08:03:21.230Z,96.90
2023-05-18T08:05:44.860Z,98.50
2023-05-18T08:08:11.901Z,97.70
2023-05-18T08:10:35.660Z,96.70
2023-05-18T08:12:59.212Z,98.90
2023-05-18T08:15:22.943Z,99.40
2023-05-18T08:17:47.521Z,99.30
2023-05-18T08:20:12.913Z,98.00
2023-05-18T08:22:36.484Z,96.50
2023-05-18T08:25:02.002Z,98.30
2023-05-18T08:27:25.654Z,96.70
2023-05-18T08:29:49.254Z,97.40
2023-05-18T08:32:13.041Z,97.50
2023-05-18T08:34:36.805Z,96.90
2023-05-18T08:37:00.559Z,96.20
2023-05-18T08:39:24.277Z,96.00
2023-05-18T08:41:58.569Z,96.10
2023-05-18T08:44:25.341Z,96.00
2023-05-18T08:46:52.142Z,97.80
2023-05-18T08:49:20.807Z,99.00
2023-05-18T08:51:48.294Z,99.10
2023-05-18T08:54:19.702Z,96.60
2023-05-18T08:56:43.824Z,97.90
2023-05-18T08:59:10.396Z,97.50
2023-05-18T09:01:34.114Z,98.20
2023-05-18T09:03:58.562Z,96.70
2023-05-18T09:06:24.663Z,96.70
2023-05-18T09:08:48.710Z,97.10
2023-05-18T09:11:14.949Z,97.30
2023-05-18T09:13:40.241Z,97.70
2023-05-18T09:16:05.573Z,96.20
2023-05-18T09:18:29.125Z,96.60
2023-05-18T09:20:53.082Z,96.30
2023-05-18T09:23:18.469Z,97.10
2023-05-18T09:25:46.110Z,96.30
2023-05-18T09:28:09.680Z,95.50
2023-05-18T09:30:42.244Z,95.60
2023-05-18T09:33:07.551Z,95.20
2023-05-18T09:35:33.769Z,96.30
2023-05-18T09:37:57.994Z,95.90
2023-05-18T09:40:30.701Z,95.10
2023-05-18T09:42:55.950Z,95.50
2023-05-18T09:45:23.538Z,95.00
2023-05-18T09:47:47.783Z,94.00
2023-05-18T09:50:13.146Z,95.70
2023-05-18T09:52:43.527Z,94.80
2023-05-18T09:55:08.383Z,95.00
2023-05-18T09:57:32.033Z,93.70
2023-05-18T10:00:07.084Z,93.70
2023-05-18T10:02:32.500Z,93.40
2023-05-18T10:04:57.565Z,93.70
2023-05-18T10:07:24.359Z,93.60
2023-05-18T10:09:48.250Z,93.80
2023-05-18T10:12:13.386Z,94.10
2023-05-18T10:14:36.946Z,94.90
2023-05-18T10:17:11.183Z,94.90
2023-05-18T10:19:41.951Z,92.50
2023-05-18T10:22:07.596Z,90.60
2023-05-18T10:24:36.571Z,91.60
2023-05-18T10:27:03.317Z,90.90
2023-05-18T10:29:27.249Z,89.80
2023-05-18T10:31:53.375Z,91.50
2023-05-18T10:34:18.612Z,90.30
2023-05-18T10:36:42.943Z,89.80
2023-05-18T10:39:08.024Z,91.80
2023-05-18T10:41:35.896Z,89.10
2023-05-18T10:44:03.995Z,90.30
2023-05-18T10:46:27.976Z,91.10
2023-05-18T10:48:54.495Z,88.60
2023-05-18T10:51:20.616Z,87.40
2023-05-18T10:53:47.746Z,86.90
2023-05-18T10:56:11.439Z,87.60
2023-05-18T10:58:38.611Z,84.50
2023-05-18T11:01:06.326Z,89.70
2023-05-18T11:03:30.129Z,90.30
2023-05-18T11:06:05.258Z,88.60
2023-05-18T11:08:29.368Z,82.80
2023-05-18T11:11:03.250Z,86.10
2023-05-18T11:13:31.309Z,86.20
2023-05-18T11:16:07.327Z,85.20
2023-05-18T11:18:38.768Z,86.20
2023-05-18T11:21:02.514Z,86.30
2023-05-18T11:23:26.094Z,91.90
2023-05-18T11:25:51.605Z,87.70
2023-05-18T11:28:15.348Z,83.50
2023-05-18T11:30:51.312Z,82.30
2023-05-18T11:33:19.322Z,84.20
2023-05-18T11:35:59.322Z,83.70
2023-05-18T11:38:23.803Z,82.40
2023-05-18T11:40:49.006Z,84.20
2023-05-18T11:43:22.205Z,87.20
2023-05-18T11:45:55.438Z,80.90
2023-05-18T11:48:24.613Z,82.80
2023-05-18T11:50:48.842Z,79.10
2023-05-18T11:53:17.935Z,82.40
2023-05-18T11:55:43.410Z,78.20
2023-05-18T11:58:10.461Z,80.40
2023-05-18T12:00:34.075Z,80.60
2023-05-18T12:02:58.553Z,79.80
2023-05-18T12:05:24.109Z,79.80
2023-05-18T12:07:54.763Z,77.50
2023-05-18T12:10:18.424Z,81.20
2023-05-18T12:12:43.122Z,77.60
2023-05-18T12:15:09.212Z,77.60
2023-05-18T12:17:41.099Z,82.20
2023-05-18T12:20:06.313Z,85.60
2023-05-18T12:22:31.340Z,76.60
2023-05-18T12:24:54.956Z,75.10
2023-05-18T12:27:18.564Z,76.80
2023-05-18T12:29:43.595Z,77.40
2023-05-18T12:32:09.541Z,76.90
2023-05-18T12:34:33.373Z,76.70
2023-05-18T12:36:57.414Z,78.20
2023-05-18T12:39:22.820Z,75.90
2023-05-18T12:41:46.506Z,77.10
2023-05-18T12:44:10.131Z,78.30
2023-05-18T12:46:33.894Z,77.90
2023-05-18T12:49:01.460Z,74.00
2023-05-18T12:51:30.886Z,74.00
2023-05-18T12:53:54.521Z,76.10
2023-05-18T12:56:20.982Z,78.70
2023-05-18T12:58:58.444Z,74.60
2023-05-18T13:01:22.175Z,73.50
2023-05-18T13:03:45.934Z,77.60
2023-05-18T13:06:10.621Z,78.50
2023-05-18T13:08:35.886Z,76.90
2023-05-18T13:11:12.745Z,77.50
2023-05-18T13:13:39.082Z,73.90
2023-05-18T13:16:03.151Z,75.40
2023-05-18T13:18:27.753Z,76.90
2023-05-18T13:20:53.173Z,74.80
2023-05-18T13:23:18.375Z,78.60
2023-05-18T13:25:42.674Z,72.20
2023-05-18T13:28:07.327Z,73.40
2023-05-18T13:30:32.740Z,71.00
2023-05-18T13:32:56.605Z,72.70
2023-05-18T13:35:20.789Z,75.00
2023-05-18T13:37:45.188Z,70.90
2023-05-18T13:40:10.290Z,73.90
2023-05-18T13:42:34.925Z,74.60
2023-05-18T13:44:58.547Z,74.90
2023-05-18T13:47:23.615Z,77.20
2023-05-18T13:49:47.180Z,75.00
2023-05-18T13:52:10.857Z,73.90
2023-05-18T13:54:34.430Z,76.20
2023-05-18T13:56:58.208Z,73.60
2023-05-18T13:59:22.536Z,73.30
2023-05-18T14:01:47.580Z,77.70
2023-05-18T14:04:12.515Z,71.70
2023-05-18T14:06:36.182Z,74.30
2023-05-18T14:08:59.761Z,71.90
2023-05-18T14:11:23.415Z,76.10
2023-05-18T14:13:47.030Z,72.80
2023-05-18T14:16:10.756Z,69.20
2023-05-18T14:18:34.335Z,74.60
2023-05-18T14:21:02.257Z,71.10
2023-05-18T14:23:25.913Z,70.10
2023-05-18T14:25:49.549Z,70.80
2023-05-18T14:28:13.487Z,71.80
2023-05-18T14:30:37.188Z,74.60
2023-05-18T14:33:01.473Z,74.60
2023-05-18T14:35:25.213Z,72.40
2023-05-18T14:37:50.224Z,70.40
2023-05-18T14:40:14.313Z,70.70
2023-05-18T14:42:37.905Z,71.00
2023-05-18T14:45:01.637Z,71.80
2023-05-18T14:47:25.199Z,72.30
2023-05-18T14:49:48.811Z,71.10
2023-05-18T14:52:12.414Z,68.60
2023-05-18T14:54:37.598Z,70.20
2023-05-18T14:57:01.325Z,70.70
2023-05-18T14:59:24.910Z,73.00
2023-05-18T15:01:48.523Z,71.70
2023-05-18T15:04:12.314Z,70.60
2023-05-18T15:06:37.459Z,71.80
2023-05-18T15:09:02.514Z,70.60
2023-05-18T15:11:27.586Z,70.40
2023-05-18T15:13:51.356Z,70.00
2023-05-18T15:16:16.161Z,69.80
2023-05-18T15:18:39.949Z,71.00
2023-05-18T15:21:03.531Z,72.50
2023-05-18T15:23:27.360Z,71.80
2023-05-18T15:25:52.523Z,70.40
2023-05-18T15:28:17.474Z,69.10
2023-05-18T15:30:41.116Z,72.40
2023-05-18T15:33:06.219Z,72.50
2023-05-18T15:35:30.214Z,70.60
2023-05-18T15:37:53.912Z,74.80
2023-05-18T15:40:18.513Z,71.20
2023-05-18T15:42:42.132Z,71.70
2023-05-18T15:45:09.007Z,71.90
2023-05-18T15:47:33.091Z,73.20
2023-05-18T15:49:57.835Z,74.10
2023-05-18T15:52:21.932Z,71.60
2023-05-18T15:54:46.177Z,73.00
2023-05-18T15:57:10.663Z,73.20
2023-05-18T15:59:34.278Z,75.80
2023-05-18T16:01:59.294Z,74.10
2023-05-18T16:04:22.880Z,74.00
2023-05-18T16:06:46.650Z,73.60
2023-05-18T16:09:10.273Z,73.70
2023-05-18T16:11:35.621Z,77.00
2023-05-18T16:14:00.499Z,74.40
2023-05-18T16:16:25.235Z,72.70
2023-05-18T16:18:50.752Z,73.80
2023-05-18T16:21:14.489Z,75.70
2023-05-18T16:23:38.038Z,73.10
2023-05-18T16:26:05.412Z,73.30
2023-05-18T16:28:29.129Z,73.20
2023-05-18T16:30:52.882Z,74.50
2023-05-18T16:33:16.944Z,72.80
2023-05-18T16:35:41.975Z,78.50
2023-05-18T16:38:05.900Z,74.70
2023-05-18T16:40:29.679Z,75.20
2023-05-18T16:42:53.390Z,75.00
2023-05-18T16:45:17.252Z,75.10
2023-05-18T16:47:40.866Z,75.60
2023-05-18T16:50:04.770Z,75.00
2023-05-18T16:52:29.743Z,76.20
2023-05-18T16:54:53.420Z,77.50
2023-05-18T16:57:17.290Z,74.70
2023-05-18T16:59:41.332Z,74.60
2023-05-18T17:02:05.095Z,75.80
2023-05-18T17:04:28.780Z,75.80
2023-05-18T17:06:53.370Z,76.50
2023-05-18T17:09:20.572Z,76.90
2023-05-18T17:11:44.097Z,76.90
2023-05-18T17:14:07.755Z,76.50
2023-05-18T17:16:33.013Z,77.00
2023-05-18T17:18:57.692Z,78.10
2023-05-18T17:21:21.456Z,77.20
2023-05-18T17:23:45.099Z,77.50
2023-05-18T17:26:10.287Z,77.10
2023-05-18T17:28:33.859Z,77.80
2023-05-18T17:30:57.469Z,77.30
2023-05-18T17:33:29.358Z,77.50
2023-05-18T17:35:53.865Z,79.30
2023-05-18T17:38:17.629Z,80.20
2023-05-18T17:40:41.260Z,79.70
2023-05-18T17:43:06.704Z,79.40
2023-05-18T17:45:30.451Z,79.00
2023-05-18T17:47:54.556Z,79.70
2023-05-18T17:50:18.255Z,81.90
2023-05-18T17:52:41.851Z,79.70
2023-05-18T17:55:06.317Z,81.20
2023-05-18T17:57:30.218Z,80.70
2023-05-18T17:59:55.205Z,80.90
2023-05-18T18:02:18.747Z,81.20
2023-05-18T18:04:42.435Z,82.80
2023-05-18T18:07:06.304Z,83.90
2023-05-18T18:09:29.963Z,86.60
2023-05-18T18:11:57.043Z,85.80
2023-05-18T18:14:21.035Z,85.40
2023-05-18T18:16:46.115Z,87.10
2023-05-18T18:19:10.386Z,87.70
2023-05-18T18:21:34.029Z,89.90
2023-05-18T18:23:57.670Z,86.90
2023-05-18T18:26:21.682Z,89.90
2023-05-18T18:28:45.263Z,88.70
2023-05-18T18:31:09.228Z,90.00
2023-05-18T18:33:34.365Z,90.70
2023-05-18T18:35:58.990Z,90.90
2023-05-18T18:38:23.225Z,90.90
2023-05-18T18:40:46.851Z,91.10
2023-05-18T18:43:10.483Z,91.50
2023-05-18T18:45:34.448Z,91.80
2023-05-18T18:47:58.193Z,92.00
2023-05-18T18:50:23.511Z,92.00
2023-05-18T18:52:47.135Z,92.10
2023-05-18T18:55:10.835Z,92.50
2023-05-18T18:57:34.608Z,92.50
2023-05-18T19:00:00.825Z,92.70
2023-05-18T19:02:24.769Z,93.10
2023-05-18T19:04:48.459Z,93.20
2023-05-18T19:07:13.481Z,93.30
2023-05-18T19:09:37.112Z,93.50
2023-05-18T19:12:00.978Z,93.90
2023-05-18T19:14:24.520Z,94.10
2023-05-18T19:16:48.318Z,94.20
2023-05-18T19:19:12.534Z,94.90
2023-05-18T19:21:36.543Z,94.80
2023-05-18T19:24:01.459Z,95.00
2023-05-18T19:26:25.580Z,95.40
2023-05-18T19:28:49.164Z,95.40
2023-05-18T19:31:12.792Z,95.80
2023-05-18T19:33:36.439Z,96.10
2023-05-18T19:36:00.100Z,96.50
2023-05-18T19:38:23.717Z,97.00
2023-05-18T19:40:49.051Z,97.00
2023-05-18T19:43:12.779Z,97.40
2023-05-18T19:45:36.653Z,97.50
2023-05-18T19:48:00.679Z,98.60
2023-05-18T19:50:24.322Z,97.80
2023-05-18T19:52:49.485Z,97.60
2023-05-18T19:55:13.128Z,98.00
2023-05-18T19:57:38.216Z,98.00
2023-05-18T20:00:02.412Z,98.70
2023-05-18T20:02:35.797Z,99.00
2023-05-18T20:05:00.504Z,99.40
2023-05-18T20:07:24.090Z,98.70
2023-05-18T20:09:47.897Z,99.90
2023-05-18T20:12:11.702Z,99.70
2023-05-18T20:14:36.766Z,99.90
2023-05-18T20:17:00.592Z,99.90
2023-05-18T20:19:24.287Z,99.90
2023-05-18T20:21:48.744Z,99.90
2023-05-18T20:24:12.444Z,99.90
2023-05-18T20:26:36.238Z,99.90
2023-05-18T20:29:00.025Z,99.90
2023-05-18T20:31:25.083Z,99.90
2023-05-18T20:33:48.726Z,99.90
2023-05-18T20:36:13.560Z,99.90
2023-05-18T20:38:38.791Z,99.90
2023-05-18T20:41:03.536Z,99.90
2023-05-18T20:43:27.297Z,99.90
2023-05-18T20:45:51.415Z,99.90
2023-05-18T20:48:24.665Z,99.90
2023-05-18T20:50:48.345Z,99.90
2023-05-18T20:53:11.953Z,99.90
2023-05-18T20:55:35.580Z,99.90
2023-05-18T20:58:02.494Z,99.90
2023-05-18T21:00:26.406Z,99.90
2023-05-18T21:02:50.284Z,99.90
2023-05-18T21:05:16.357Z,99.90
2023-05-18T21:07:40.451Z,99.90
2023-05-18T21:10:05.593Z,99.90
2023-05-18T21:12:29.969Z,99.90
2023-05-18T21:14:54.382Z,99.90
2023-05-18T21:17:18.889Z,99.90
2023-05-18T21:19:43.744Z,99.90
2023-05-18T21:22:10.897Z,99.90
2023-05-18T21:24:35.298Z,99.90
2023-05-18T21:26:58.883Z,99.90
2023-05-18T21:29:22.464Z,99.90
2023-05-18T21:31:46.154Z,99.90
2023-05-18T21:34:10.131Z,99.90
2023-05-18T21:36:35.018Z,99.90
2023-05-18T21:39:00.437Z,99.90
2023-05-18T21:41:24.298Z,99.90
2023-05-18T21:43:48.204Z,99.90
2023-05-18T21:46:12.618Z,99.90
2023-05-18T21:48:36.878Z,99.90
2023-05-18T21:51:01.565Z,99.90
2023-05-18T21:53:26.955Z,99.90
2023-05-18T21:55:51.883Z,99.90
2023-05-18T21:58:15.513Z,99.90
2023-05-18T22:00:39.679Z,99.90
2023-05-18T22:03:03.276Z,99.90
2023-05-18T22:05:26.995Z,99.90
2023-05-18T22:07:50.780Z,99.90
2023-05-18T22:10:14.310Z,99.90
2023-05-18T22:12:41.135Z,99.90
2023-05-18T22:15:05.098Z,99.90
2023-05-18T22:17:28.745Z,99.90
2023-05-18T22:19:52.326Z,99.90
2023-05-18T22:22:29.130Z,99.90
2023-05-18T22:24:54.083Z,99.90
2023-05-18T22:27:17.690Z,99.90
2023-05-18T22:29:42.738Z,99.90
2023-05-18T22:32:07.830Z,99.90
2023-05-18T22:34:31.479Z,99.90
2023-05-18T22:36:55.039Z,99.90
2023-05-18T22:39:18.661Z,99.90
2023-05-18T22:41:42.236Z,99.90
2023-05-18T22:44:06.236Z,99.90
2023-05-18T22:46:31.534Z,99.90
2023-05-18T22:48:55.295Z,99.90
2023-05-18T22:51:18.871Z,99.90
2023-05-18T22:53:42.578Z,99.90
2023-05-18T22:56:08.067Z,99.90
2023-05-18T22:58:31.673Z,99.90
2023-05-18T23:00:55.239Z,99.90
2023-05-18T23:03:20.467Z,99.90
2023-05-18T23:05:45.923Z,99.90
2023-05-18T23:08:09.621Z,99.90
2023-05-18T23:10:33.551Z,99.90
2023-05-18T23:12:58.497Z,99.90
2023-05-18T23:15:22.360Z,99.90
2023-05-18T23:17:46.302Z,99.90
2023-05-18T23:20:13.020Z,99.90
2023-05-18T23:22:36.704Z,99.90
2023-05-18T23:25:00.372Z,99.90
2023-05-18T23:27:24.074Z,99.90
2023-05-18T23:29:47.739Z,99.90
2023-05-18T23:32:11.447Z,99.90
2023-05-18T23:34:36.325Z,99.90
2023-05-18T23:37:06.519Z,99.90
2023-05-18T23:39:31.606Z,99.90
2023-05-18T23:41:56.950Z,99.90
2023-05-18T23:44:21.665Z,99.90
2023-05-18T23:46:46.054Z,99.90
2023-05-18T23:49:10.642Z,99.90
2023-05-18T23:51:36.763Z,99.90
2023-05-18T23:54:05.087Z,99.90
2023-05-18T23:56:30.764Z,99.90
2023-05-18T23:58:55.120Z,99.90
